createdAt,value
2023-04-02T00:00:10.649Z,97454.81
2023-04-02T00:01:50.898Z,97457.84
2023-04-02T00:02:58.417Z,97462.38
2023-04-02T00:04:00.002Z,97458.22
2023-04-02T00:05:16.354Z,97461.63
2023-04-02T00:06:45.274Z,97466.13
2023-04-02T00:07:58.153Z,97469.09
2023-04-02T00:09:03.289Z,97467.22
2023-04-02T00:10:05.348Z,97464.94
2023-04-02T00:11:09.104Z,97460.44
2023-04-02T00:12:19.454Z,97468.72
2023-04-02T00:13:43.904Z,97472.16
2023-04-02T00:14:48.608Z,97473.69
2023-04-02T00:15:54.481Z,97476.28
2023-04-02T00:17:01.363Z,97471.38
2023-04-02T00:18:04.188Z,97481.59
2023-04-02T00:19:07.521Z,97486.44
2023-04-02T00:20:15.867Z,97481.19
2023-04-02T00:21:17.254Z,97474.38
2023-04-02T00:22:26.482Z,97477.03
2023-04-02T00:23:28.380Z,97481.16
2023-04-02T00:24:30.052Z,97485.31
2023-04-02T00:25:36.994Z,97485.31
2023-04-02T00:26:58.889Z,97484.22
2023-04-02T00:28:00.690Z,97484.56
2023-04-02T00:29:04.298Z,97486.09
2023-04-02T00:30:07.079Z,97480.44
2023-04-02T00:31:10.951Z,97483.81
2023-04-02T00:32:20.858Z,97483.81
2023-04-02T00:33:28.144Z,97480.81
2023-04-02T00:34:34.986Z,97487.19
2023-04-02T00:35:39.457Z,97486.03
2023-04-02T00:36:42.126Z,97489.81
2023-04-02T00:37:47.206Z,97487.94
2023-04-02T00:38:49.161Z,97488.34
2023-04-02T00:40:07.316Z,97484.19
2023-04-02T00:41:10.466Z,97492.47
2023-04-02T00:42:14.326Z,97502.66
2023-04-02T00:43:16.835Z,97494.75
2023-04-02T00:44:22.055Z,97500.00
2023-04-02T00:45:30.861Z,97494.34
2023-04-02T00:46:46.957Z,97494.34
2023-04-02T00:47:48.880Z,97496.56
2023-04-02T00:48:59.702Z,97493.56
2023-04-02T00:50:18.554Z,97490.94
2023-04-02T00:51:38.086Z,97496.97
2023-04-02T00:52:42.166Z,97496.22
2023-04-02T00:53:47.386Z,97495.81
2023-04-02T00:54:54.901Z,97494.69
2023-04-02T00:55:58.878Z,97498.47
2023-04-02T00:57:01.770Z,97496.97
2023-04-02T00:58:16.013Z,97507.88
2023-04-02T00:59:30.992Z,97499.63
2023-04-02T01:00:35.205Z,97498.09
2023-04-02T01:01:37.841Z,97503.34
2023-04-02T01:02:41.217Z,97506.00
2023-04-02T01:03:43.958Z,97505.25
2023-04-02T01:05:05.540Z,97508.66
2023-04-02T01:06:11.414Z,97510.91
2023-04-02T01:07:13.247Z,97511.25
2023-04-02T01:08:36.305Z,97507.50
2023-04-02T01:09:45.491Z,97511.97
2023-04-02T01:11:15.895Z,97508.19
2023-04-02T01:12:20.455Z,97507.84
2023-04-02T01:13:31.121Z,97513.88
2023-04-02T01:15:01.252Z,97516.16
2023-04-02T01:16:36.485Z,97522.53
2023-04-02T01:18:09.696Z,97519.91
2023-04-02T01:19:43.734Z,97516.53
2023-04-02T01:21:36.936Z,97520.69
2023-04-02T01:23:11.796Z,97515.78
2023-04-02T01:24:14.570Z,97524.78
2023-04-02T01:25:26.102Z,97517.66
2023-04-02T01:26:51.702Z,97518.81
2023-04-02T01:28:20.190Z,97519.22
2023-04-02T01:29:27.600Z,97518.84
2023-04-02T01:30:29.344Z,97521.09
2023-04-02T01:31:33.461Z,97529.34
2023-04-02T01:32:36.132Z,97516.19
2023-04-02T01:33:41.340Z,97518.81
2023-04-02T01:34:44.755Z,97525.19
2023-04-02T01:35:55.921Z,97524.81
2023-04-02T01:37:06.348Z,97522.59
2023-04-02T01:38:18.132Z,97535.31
2023-04-02T01:39:56.177Z,97528.56
2023-04-02T01:41:09.353Z,97532.31
2023-04-02T01:42:48.800Z,97530.47
2023-04-02T01:43:58.323Z,97535.72
2023-04-02T01:45:08.039Z,97532.34
2023-04-02T01:46:30.464Z,97537.25
2023-04-02T01:47:33.322Z,97539.13
2023-04-02T01:48:34.924Z,97537.97
2023-04-02T01:49:36.669Z,97548.91
2023-04-02T01:50:41.692Z,97542.13
2023-04-02T01:51:46.351Z,97546.69
2023-04-02T01:52:54.032Z,97545.16
2023-04-02T01:53:59.475Z,97541.81
2023-04-02T01:55:01.510Z,97541.03
2023-04-02T01:56:04.890Z,97543.66
2023-04-02T01:57:08.186Z,97543.28
2023-04-02T01:58:11.858Z,97545.91
2023-04-02T01:59:16.817Z,97542.53
2023-04-02T02:00:19.620Z,97550.06
2023-04-02T02:01:25.887Z,97550.81
2023-04-02T02:02:28.104Z,97546.31
2023-04-02T02:03:30.374Z,97554.56
2023-04-02T02:04:34.106Z,97549.28
2023-04-02T02:05:36.427Z,97548.91
2023-04-02T02:06:38.327Z,97550.38
2023-04-02T02:07:41.384Z,97552.69
2023-04-02T02:08:58.720Z,97548.56
2023-04-02T02:10:00.336Z,97552.72
2023-04-02T02:11:02.553Z,97549.31
2023-04-02T02:12:04.415Z,97554.59
2023-04-02T02:13:14.390Z,97551.91
2023-04-02T02:14:18.826Z,97555.69
2023-04-02T02:15:23.462Z,97555.31
2023-04-02T02:16:29.324Z,97551.53
2023-04-02T02:17:34.659Z,97555.66
2023-04-02T02:18:36.466Z,97560.16
2023-04-02T02:19:55.760Z,97563.94
2023-04-02T02:21:00.085Z,97562.06
2023-04-02T02:22:04.264Z,97567.69
2023-04-02T02:23:06.175Z,97555.31
2023-04-02T02:24:19.268Z,97563.97
2023-04-02T02:25:25.104Z,97568.88
2023-04-02T02:26:29.666Z,97565.91
2023-04-02T02:27:45.383Z,97562.50
2023-04-02T02:28:53.655Z,97563.22
2023-04-02T02:30:23.534Z,97572.22
2023-04-02T02:31:31.208Z,97574.84
2023-04-02T02:32:34.823Z,97570.34
2023-04-02T02:33:42.282Z,97571.47
2023-04-02T02:35:02.061Z,97571.09
2023-04-02T02:36:23.465Z,97572.97
2023-04-02T02:37:30.652Z,97576.72
2023-04-02T02:38:39.223Z,97575.97
2023-04-02T02:39:44.490Z,97580.16
2023-04-02T02:40:50.477Z,97579.69
2023-04-02T02:41:57.438Z,97577.78
2023-04-02T02:43:02.623Z,97579.25
2023-04-02T02:44:10.375Z,97584.13
2023-04-02T02:45:19.078Z,97583.03
2023-04-02T02:46:23.668Z,97584.56
2023-04-02T02:47:28.408Z,97585.69
2023-04-02T02:48:37.505Z,97586.06
2023-04-02T02:49:52.397Z,97588.38
2023-04-02T02:50:56.195Z,97581.97
2023-04-02T02:52:12.867Z,97587.25
2023-04-02T02:53:24.829Z,97588.78
2023-04-02T02:54:27.904Z,97588.00
2023-04-02T02:55:37.720Z,97588.38
2023-04-02T02:56:44.332Z,97582.75
2023-04-02T02:57:52.740Z,97586.16
2023-04-02T02:58:56.929Z,97588.00
2023-04-02T03:00:05.601Z,97595.91
2023-04-02T03:01:08.143Z,97593.66
2023-04-02T03:02:11.013Z,97592.50
2023-04-02T03:03:17.007Z,97597.03
2023-04-02T03:04:25.146Z,97596.69
2023-04-02T03:05:28.535Z,97599.31
2023-04-02T03:06:30.464Z,97607.22
2023-04-02T03:07:32.548Z,97606.47
2023-04-02T03:08:40.362Z,97604.22
2023-04-02T03:10:14.474Z,97604.94
2023-04-02T03:11:58.476Z,97611.72
2023-04-02T03:13:05.303Z,97606.03
2023-04-02T03:14:31.096Z,97617.34
2023-04-02T03:15:38.295Z,97612.84
2023-04-02T03:16:49.162Z,97610.56
2023-04-02T03:18:00.619Z,97612.84
2023-04-02T03:19:26.637Z,97617.75
2023-04-02T03:20:44.249Z,97621.50
2023-04-02T03:22:19.491Z,97628.31
2023-04-02T03:23:35.274Z,97624.16
2023-04-02T03:24:46.778Z,97629.09
2023-04-02T03:25:56.266Z,97625.28
2023-04-02T03:27:20.541Z,97630.94
2023-04-02T03:28:32.125Z,97634.63
2023-04-02T03:29:39.483Z,97639.53
2023-04-02T03:30:44.655Z,97638.44
2023-04-02T03:31:57.815Z,97641.78
2023-04-02T03:33:43.839Z,97636.56
2023-04-02T03:34:58.718Z,97641.81
2023-04-02T03:36:10.762Z,97647.09
2023-04-02T03:37:26.103Z,97640.34
2023-04-02T03:38:38.841Z,97647.09
2023-04-02T03:40:08.423Z,97642.22
2023-04-02T03:41:12.159Z,97640.38
2023-04-02T03:42:22.649Z,97646.75
2023-04-02T03:43:37.128Z,97643.75
2023-04-02T03:45:08.134Z,97645.56
2023-04-02T03:46:09.565Z,97649.34
2023-04-02T03:47:19.296Z,97640.31
2023-04-02T03:48:37.365Z,97646.75
2023-04-02T03:49:47.906Z,97645.63
2023-04-02T03:51:00.550Z,97647.47
2023-04-02T03:52:06.742Z,97648.97
2023-04-02T03:53:09.183Z,97649.75
2023-04-02T03:56:58.883Z,97657.31
2023-04-02T04:00:32.859Z,97661.09
2023-04-02T04:03:02.771Z,97656.88
2023-04-02T04:04:19.244Z,97657.28
2023-04-02T04:05:35.513Z,97668.16
2023-04-02T04:06:42.863Z,97670.78
2023-04-02T04:07:44.874Z,97667.00
2023-04-02T04:08:58.475Z,97667.78
2023-04-02T04:10:05.807Z,97668.56
2023-04-02T04:11:16.766Z,97669.31
2023-04-02T04:12:36.161Z,97674.56
2023-04-02T04:13:56.638Z,97671.22
2023-04-02T04:15:09.605Z,97685.91
2023-04-02T04:16:26.719Z,97679.88
2023-04-02T04:17:57.195Z,97681.00
2023-04-02T04:19:21.675Z,97684.06
2023-04-02T04:32:38.519Z,97699.38
2023-04-02T04:34:07.926Z,97700.50
2023-04-02T04:35:42.219Z,97697.91
2023-04-02T04:37:09.262Z,97701.25
2023-04-02T04:38:39.210Z,97707.31
2023-04-02T04:39:51.118Z,97706.94
2023-04-02T04:41:10.432Z,97701.66
2023-04-02T04:42:25.703Z,97711.03
2023-04-02T04:43:37.722Z,97713.31
2023-04-02T04:44:51.182Z,97712.56
2023-04-02T04:46:01.619Z,97717.78
2023-04-02T04:47:23.701Z,97713.94
2023-04-02T04:48:36.383Z,97712.84
2023-04-02T04:52:57.871Z,97727.91
2023-04-02T04:54:17.478Z,97733.22
2023-04-02T04:55:45.245Z,97735.47
2023-04-02T04:56:55.994Z,97731.69
2023-04-02T04:58:59.959Z,97729.09
2023-04-02T05:04:26.459Z,97735.91
2023-04-02T05:05:33.883Z,97739.66
2023-04-02T05:06:38.545Z,97748.31
2023-04-02T05:07:49.169Z,97743.81
2023-04-02T05:08:57.309Z,97749.47
2023-04-02T05:10:27.399Z,97747.97
2023-04-02T05:12:00.223Z,97751.75
2023-04-02T05:13:14.247Z,97750.56
2023-04-02T05:14:25.898Z,97753.59
2023-04-02T05:15:35.589Z,97754.00
2023-04-02T05:16:47.010Z,97753.25
2023-04-02T05:18:26.982Z,97759.25
2023-04-02T05:19:37.568Z,97764.09
2023-04-02T05:21:07.050Z,97758.03
2023-04-02T05:22:41.314Z,97760.69
2023-04-02T05:23:53.726Z,97768.63
2023-04-02T05:25:19.871Z,97763.44
2023-04-02T05:26:31.624Z,97766.38
2023-04-02T05:27:46.712Z,97767.81
2023-04-02T05:29:02.675Z,97768.16
2023-04-02T05:30:32.738Z,97766.38
2023-04-02T05:31:46.840Z,97777.66
2023-04-02T05:32:56.315Z,97770.47
2023-04-02T05:33:58.168Z,97779.78
2023-04-02T05:35:00.046Z,97773.81
2023-04-02T05:36:12.381Z,97771.22
2023-04-02T05:37:19.135Z,97779.16
2023-04-02T05:38:23.748Z,97774.66
2023-04-02T05:39:27.120Z,97783.31
2023-04-02T05:40:46.473Z,97775.44
2023-04-02T05:41:48.523Z,97785.53
2023-04-02T05:42:52.936Z,97784.09
2023-04-02T05:44:20.492Z,97785.19
2023-04-02T05:45:31.757Z,97789.72
2023-04-02T05:46:53.651Z,97796.13
2023-04-02T05:48:01.617Z,97793.09
2023-04-02T05:49:09.506Z,97785.97
2023-04-02T05:50:27.101Z,97794.56
2023-04-02T05:51:41.668Z,97794.94
2023-04-02T05:52:48.780Z,97792.69
2023-04-02T05:53:55.329Z,97800.25
2023-04-02T05:55:04.734Z,97799.13
2023-04-02T05:56:16.739Z,97802.50
2023-04-02T05:57:29.572Z,97799.91
2023-04-02T05:59:01.319Z,97802.13
2023-04-02T06:00:07.812Z,97801.38
2023-04-02T06:01:25.230Z,97806.25
2023-04-02T06:02:37.367Z,97805.19
2023-04-02T06:03:48.852Z,97805.94
2023-04-02T06:05:15.137Z,97811.22
2023-04-02T06:08:58.273Z,97814.88
2023-04-02T06:10:35.542Z,97820.19
2023-04-02T06:11:45.692Z,97828.47
2023-04-02T06:12:54.090Z,97821.69
2023-04-02T06:13:58.741Z,97815.72
2023-04-02T06:15:00.588Z,97823.63
2023-04-02T06:16:05.981Z,97827.34
2023-04-02T06:17:12.127Z,97831.50
2023-04-02T06:18:18.424Z,97822.06
2023-04-02T06:19:27.611Z,97828.16
2023-04-02T06:20:29.123Z,97824.34
2023-04-02T06:21:31.794Z,97833.41
2023-04-02T06:22:38.570Z,97829.94
2023-04-02T06:24:01.164Z,97835.63
2023-04-02T06:25:20.611Z,97847.69
2023-04-02T06:26:41.824Z,97840.91
2023-04-02T06:27:46.466Z,97841.63
2023-04-02T06:28:53.805Z,97852.94
2023-04-02T06:30:01.065Z,97842.41
2023-04-02T06:31:09.663Z,97858.19
2023-04-02T06:32:12.698Z,97848.81
2023-04-02T06:33:15.552Z,97852.56
2023-04-02T06:34:23.312Z,97857.88
2023-04-02T06:35:25.058Z,97850.69
2023-04-02T06:36:27.757Z,97856.34
2023-04-02T06:37:36.871Z,97862.41
2023-04-02T06:38:38.952Z,97861.97
2023-04-02T06:39:40.569Z,97862.72
2023-04-02T06:40:47.478Z,97864.66
2023-04-02T06:42:04.481Z,97870.69
2023-04-02T06:43:26.741Z,97877.06
2023-04-02T06:48:02.100Z,97878.16
2023-04-02T06:49:20.502Z,97878.88
2023-04-02T06:50:25.226Z,97880.38
2023-04-02T06:51:42.198Z,97883.75
2023-04-02T06:53:14.767Z,97887.63
2023-04-02T06:54:18.067Z,97886.13
2023-04-02T06:55:50.496Z,97896.34
2023-04-02T06:56:53.726Z,97895.63
2023-04-02T06:57:55.612Z,97888.81
2023-04-02T06:58:58.058Z,97890.28
2023-04-02T06:59:59.811Z,97898.91
2023-04-02T07:01:01.447Z,97899.25
2023-04-02T07:02:16.750Z,97899.31
2023-04-02T07:03:36.444Z,97901.59
2023-04-02T07:04:38.209Z,97897.84
2023-04-02T07:05:42.437Z,97903.09
2023-04-02T07:06:44.509Z,97908.72
2023-04-02T07:07:46.208Z,97909.84
2023-04-02T07:08:55.568Z,97912.84
2023-04-02T07:10:29.633Z,97914.00
2023-04-02T07:11:31.672Z,97912.47
2023-04-02T07:12:33.420Z,97915.44
2023-04-02T07:13:34.986Z,97918.88
2023-04-02T07:14:36.446Z,97918.91
2023-04-02T07:15:38.175Z,97917.78
2023-04-02T07:16:52.313Z,97920.06
2023-04-02T07:38:37.569Z,97963.31
2023-04-02T08:00:35.926Z,98011.88
2023-04-02T08:06:12.561Z,98018.94
2023-04-02T08:11:52.153Z,98037.53
2023-04-02T08:14:05.420Z,98033.22
2023-04-02T08:19:54.080Z,98050.00
2023-04-02T08:20:57.629Z,98048.91
2023-04-02T08:21:59.225Z,98048.97
2023-04-02T08:23:01.147Z,98055.81
2023-04-02T08:24:03.790Z,98056.97
2023-04-02T08:25:05.826Z,98054.38
2023-04-02T08:26:07.638Z,98059.25
2023-04-02T08:27:14.481Z,98056.97
2023-04-02T08:28:16.686Z,98066.75
2023-04-02T08:29:18.366Z,98059.66
2023-04-02T08:30:20.022Z,98066.47
2023-04-02T08:31:21.907Z,98066.50
2023-04-02T08:32:24.243Z,98068.72
2023-04-02T08:33:26.395Z,98072.81
2023-04-02T08:34:29.694Z,98072.34
2023-04-02T08:35:31.309Z,98076.47
2023-04-02T08:36:38.790Z,98074.59
2023-04-02T08:37:41.407Z,98080.69
2023-04-02T08:38:42.939Z,98082.88
2023-04-02T08:39:44.363Z,98084.75
2023-04-02T08:40:52.197Z,98087.03
2023-04-02T08:42:03.015Z,98080.25
2023-04-02T08:43:22.459Z,98092.72
2023-04-02T08:44:53.697Z,98099.56
2023-04-02T08:46:04.474Z,98098.75
2023-04-02T08:47:08.374Z,98097.22
2023-04-02T08:48:11.494Z,98099.50
2023-04-02T08:49:16.880Z,98105.06
2023-04-02T08:50:34.496Z,98109.56
2023-04-02T08:51:37.194Z,98110.34
2023-04-02T08:52:39.141Z,98108.81
2023-04-02T08:53:42.149Z,98112.59
2023-04-02T08:54:43.658Z,98115.25
2023-04-02T08:56:05.531Z,98117.03
2023-04-02T08:57:13.573Z,98119.16
2023-04-02T08:58:21.269Z,98125.78
2023-04-02T08:59:22.722Z,98123.47
2023-04-02T09:00:39.989Z,98129.47
2023-04-02T09:02:13.752Z,98126.94
2023-04-02T09:03:22.226Z,98136.41
2023-04-02T09:04:25.783Z,98130.16
2023-04-02T09:05:31.893Z,98139.97
2023-04-02T09:06:34.595Z,98134.72
2023-04-02T09:07:36.455Z,98142.97
2023-04-02T09:08:37.940Z,98140.56
2023-04-02T09:09:39.434Z,98137.53
2023-04-02T09:10:50.601Z,98146.19
2023-04-02T09:11:59.070Z,98141.03
2023-04-02T09:13:02.699Z,98143.94
2023-04-02T09:14:13.432Z,98148.53
2023-04-02T09:15:29.373Z,98142.22
2023-04-02T09:16:54.352Z,98146.66
2023-04-02T09:18:11.746Z,98154.19
2023-04-02T09:19:32.687Z,98152.81
2023-04-02T09:20:34.241Z,98153.97
2023-04-02T09:21:44.352Z,98155.91
2023-04-02T09:22:48.504Z,98160.34
2023-04-02T09:23:50.621Z,98160.63
2023-04-02T09:24:57.456Z,98170.34
2023-04-02T09:26:04.606Z,98171.03
2023-04-02T09:27:18.032Z,98178.94
2023-04-02T09:28:24.389Z,98167.63
2023-04-02T09:29:37.941Z,98177.75
2023-04-02T09:31:01.552Z,98181.50
2023-04-02T09:32:21.996Z,98186.34
2023-04-02T09:33:49.031Z,98179.16
2023-04-02T09:34:50.484Z,98193.13
2023-04-02T09:35:51.907Z,98192.09
2023-04-02T09:36:53.457Z,98193.28
2023-04-02T09:38:10.321Z,98203.53
2023-04-02T09:39:20.482Z,98203.59
2023-04-02T09:40:35.152Z,98205.19
2023-04-02T09:41:37.313Z,98204.16
2023-04-02T09:42:38.852Z,98210.94
2023-04-02T09:43:40.561Z,98206.34
2023-04-02T09:44:41.972Z,98212.72
2023-04-02T09:45:44.916Z,98208.22
2023-04-02T09:46:51.155Z,98216.53
2023-04-02T09:47:56.173Z,98214.19
2023-04-02T09:49:01.466Z,98220.22
2023-04-02T09:50:26.011Z,98214.88
2023-04-02T09:51:34.224Z,98216.34
2023-04-02T09:52:36.393Z,98232.97
2023-04-02T09:53:42.843Z,98225.41
2023-04-02T09:54:44.467Z,98229.22
2023-04-02T09:55:46.196Z,98225.06
2023-04-02T09:57:05.845Z,98234.72
2023-04-02T09:58:16.668Z,98232.75
2023-04-02T09:59:21.937Z,98232.75
2023-04-02T10:00:32.229Z,98235.13
2023-04-02T10:01:42.683Z,98248.19
2023-04-02T10:02:46.744Z,98239.69
2023-04-02T10:03:48.546Z,98255.91
2023-04-02T10:04:50.242Z,98244.22
2023-04-02T10:06:12.561Z,98250.81
2023-04-02T10:07:38.256Z,98249.03
2023-04-02T10:08:43.584Z,98246.69
2023-04-02T10:09:45.098Z,98250.69
2023-04-02T10:10:51.098Z,98250.00
2023-04-02T10:11:55.759Z,98248.19
2023-04-02T10:13:02.637Z,98257.59
2023-04-02T10:14:10.003Z,98259.44
2023-04-02T10:15:20.338Z,98261.72
2023-04-02T10:16:33.170Z,98261.03
2023-04-02T10:17:37.106Z,98271.88
2023-04-02T10:18:50.727Z,98264.16
2023-04-02T10:19:56.071Z,98266.78
2023-04-02T10:21:03.263Z,98268.69
2023-04-02T10:22:16.575Z,98272.38
2023-04-02T10:23:19.674Z,98280.53
2023-04-02T10:24:21.194Z,98274.66
2023-04-02T10:25:27.040Z,98281.53
2023-04-02T10:26:51.762Z,98282.44
2023-04-02T10:28:00.547Z,98283.63
2023-04-02T10:29:39.022Z,98284.44
2023-04-02T10:31:03.773Z,98282.22
2023-04-02T10:32:12.438Z,98286.81
2023-04-02T10:33:30.326Z,98287.97
2023-04-02T10:34:32.160Z,98285.78
2023-04-02T10:35:55.663Z,98283.13
2023-04-02T10:37:08.829Z,98290.41
2023-04-02T10:38:22.143Z,98288.88
2023-04-02T10:39:41.066Z,98287.75
2023-04-02T10:40:45.850Z,98293.88
2023-04-02T10:42:00.090Z,98294.28
2023-04-02T10:43:32.930Z,98301.97
2023-04-02T10:44:50.606Z,98302.41
2023-04-02T10:46:06.388Z,98300.63
2023-04-02T10:47:27.333Z,98304.47
2023-04-02T10:48:50.621Z,98302.66
2023-04-02T10:50:14.076Z,98303.13
2023-04-02T10:51:24.215Z,98304.38
2023-04-02T10:53:21.179Z,98311.50
2023-04-02T10:54:30.700Z,98308.53
2023-04-02T10:55:40.876Z,98307.34
2023-04-02T10:56:50.703Z,98315.25
2023-04-02T10:57:56.728Z,98321.28
2023-04-02T10:59:28.338Z,98319.69
2023-04-02T11:00:38.936Z,98325.72
2023-04-02T11:01:43.248Z,98327.22
2023-04-02T11:03:01.954Z,98325.25
2023-04-02T11:04:14.756Z,98328.66
2023-04-02T11:05:28.278Z,98329.69
2023-04-02T11:06:42.103Z,98333.66
2023-04-02T11:07:53.079Z,98345.03
2023-04-02T11:09:00.394Z,98335.59
2023-04-02T11:10:02.413Z,98337.41
2023-04-02T11:11:17.175Z,98347.50
2023-04-02T11:12:25.684Z,98340.44
2023-04-02T11:14:01.178Z,98350.69
2023-04-02T11:15:03.514Z,98354.09
2023-04-02T11:16:05.306Z,98345.03
2023-04-02T11:17:13.772Z,98345.72
2023-04-02T11:18:31.000Z,98351.88
2023-04-02T11:19:34.142Z,98339.47
2023-04-02T11:20:44.107Z,98362.00
2023-04-02T11:21:59.872Z,98362.13
2023-04-02T11:23:13.420Z,98364.53
2023-04-02T11:24:30.636Z,98359.88
2023-04-02T11:25:32.480Z,98365.63
2023-04-02T11:26:46.179Z,98365.31
2023-04-02T11:27:48.221Z,98366.84
2023-04-02T11:28:49.977Z,98368.34
2023-04-02T11:30:18.515Z,98367.28
2023-04-02T11:31:20.845Z,98370.28
2023-04-02T11:32:22.303Z,98372.47
2023-04-02T11:33:38.605Z,98372.91
2023-04-02T11:34:41.013Z,98380.38
2023-04-02T11:35:42.655Z,98383.69
2023-04-02T11:36:50.042Z,98392.34
2023-04-02T11:37:51.953Z,98390.41
2023-04-02T11:38:55.022Z,98393.88
2023-04-02T11:40:07.494Z,98392.41
2023-04-02T11:41:09.014Z,98392.84
2023-04-02T11:42:19.817Z,98389.78
2023-04-02T11:43:33.210Z,98401.50
2023-04-02T11:44:34.678Z,98393.69
2023-04-02T11:45:52.939Z,98396.66
2023-04-02T11:47:18.850Z,98394.38
2023-04-02T11:48:20.457Z,98391.59
2023-04-02T11:49:57.915Z,98398.78
2023-04-02T11:51:04.629Z,98395.47
2023-04-02T11:52:20.985Z,98404.56
2023-04-02T11:53:28.549Z,98400.31
2023-04-02T11:54:38.092Z,98408.16
2023-04-02T11:55:45.513Z,98407.72
2023-04-02T11:56:56.402Z,98409.59
2023-04-02T11:58:17.176Z,98400.25
2023-04-02T11:59:39.844Z,98401.00
2023-04-02T12:01:09.258Z,98415.09
2023-04-02T12:02:27.920Z,98418.94
2023-04-02T12:03:46.234Z,98420.53
2023-04-02T12:05:39.682Z,98427.34
2023-04-02T12:06:48.539Z,98422.97
2023-04-02T12:07:55.772Z,98412.38
2023-04-02T12:09:09.141Z,98429.34
2023-04-02T12:10:27.154Z,98429.84
2023-04-02T12:11:40.062Z,98420.16
2023-04-02T12:12:43.109Z,98431.56
2023-04-02T12:13:44.483Z,98428.31
2023-04-02T12:14:51.272Z,98434.78
2023-04-02T12:15:52.770Z,98430.28
2023-04-02T12:16:54.466Z,98439.34
2023-04-02T12:18:12.709Z,98440.88
2023-04-02T12:19:16.777Z,98438.19
2023-04-02T12:20:27.467Z,98438.50
2023-04-02T12:21:29.937Z,98449.38
2023-04-02T12:22:32.691Z,98443.00
2023-04-02T12:23:37.147Z,98452.03
2023-04-02T12:24:40.958Z,98449.75
2023-04-02T12:25:50.644Z,98451.34
2023-04-02T12:27:17.003Z,98450.75
2023-04-02T12:28:19.659Z,98450.25
2023-04-02T12:29:27.568Z,98455.94
2023-04-02T12:30:28.970Z,98451.00
2023-04-02T12:31:30.726Z,98457.03
2023-04-02T12:32:32.360Z,98449.50
2023-04-02T12:33:37.556Z,98452.13
2023-04-02T12:34:46.430Z,98463.00
2023-04-02T12:35:50.751Z,98464.69
2023-04-02T12:37:04.155Z,98468.00
2023-04-02T12:38:06.100Z,98461.19
2023-04-02T12:39:17.015Z,98470.63
2023-04-02T12:40:18.887Z,98466.13
2023-04-02T12:41:27.300Z,98466.19
2023-04-02T12:42:32.333Z,98473.78
2023-04-02T12:43:35.739Z,98480.16
2023-04-02T12:44:37.337Z,98472.25
2023-04-02T12:45:38.790Z,98482.78
2023-04-02T12:46:40.706Z,98484.97
2023-04-02T12:47:45.332Z,98472.56
2023-04-02T12:48:46.859Z,98480.31
2023-04-02T12:49:49.453Z,98478.00
2023-04-02T12:50:51.367Z,98479.19
2023-04-02T12:51:53.167Z,98482.59
2023-04-02T12:52:58.276Z,98486.75
2023-04-02T12:54:00.227Z,98485.22
2023-04-02T12:55:03.865Z,98481.81
2023-04-02T12:56:08.181Z,98485.13
2023-04-02T12:57:29.767Z,98481.06
2023-04-02T12:58:42.851Z,98490.56
2023-04-02T12:59:44.437Z,98493.09
2023-04-02T13:00:46.255Z,98489.88
2023-04-02T13:02:37.370Z,98485.41
2023-04-02T13:03:39.225Z,98491.75
2023-04-02T13:04:51.986Z,98492.28
2023-04-02T13:05:56.420Z,98499.38
2023-04-02T13:06:58.469Z,98500.59
2023-04-02T13:08:00.052Z,98494.91
2023-04-02T13:09:04.577Z,98493.72
2023-04-02T13:10:23.277Z,98494.47
2023-04-02T13:11:34.870Z,98500.41
2023-04-02T13:12:39.334Z,98504.91
2023-04-02T13:13:43.889Z,98499.63
2023-04-02T13:14:45.386Z,98501.09
2023-04-02T13:16:00.870Z,98501.09
2023-04-02T13:17:02.326Z,98507.13
2023-04-02T13:18:14.610Z,98505.66
2023-04-02T13:19:32.429Z,98503.72
2023-04-02T13:20:37.861Z,98506.78
2023-04-02T13:21:39.615Z,98504.50
2023-04-02T13:22:41.385Z,98506.69
2023-04-02T13:23:43.899Z,98506.25
2023-04-02T13:24:45.480Z,98509.25
2023-04-02T13:25:46.958Z,98515.25
2023-04-02T13:26:49.922Z,98512.44
2023-04-02T13:27:51.512Z,98515.16
2023-04-02T13:29:03.502Z,98519.50
2023-04-02T13:30:22.381Z,98526.53
2023-04-02T13:31:23.942Z,98523.06
2023-04-02T13:32:26.065Z,98520.44
2023-04-02T13:33:27.816Z,98522.97
2023-04-02T13:34:29.779Z,98518.03
2023-04-02T13:35:31.713Z,98527.91
2023-04-02T13:36:33.592Z,98527.03
2023-04-02T13:37:35.040Z,98532.63
2023-04-02T13:38:36.853Z,98531.84
2023-04-02T13:39:38.271Z,98535.94
2023-04-02T13:40:40.022Z,98534.84
2023-04-02T13:41:46.595Z,98532.63
2023-04-02T13:42:49.713Z,98538.22
2023-04-02T13:43:52.431Z,98544.59
2023-04-02T13:44:53.897Z,98541.09
2023-04-02T13:45:58.365Z,98548.56
2023-04-02T13:47:00.152Z,98552.19
2023-04-02T13:48:02.256Z,98552.97
2023-04-02T13:49:03.830Z,98550.00
2023-04-02T13:50:05.841Z,98554.06
2023-04-02T13:51:08.759Z,98553.09
2023-04-02T13:52:15.032Z,98560.34
2023-04-02T13:53:25.800Z,98556.94
2023-04-02T13:54:31.215Z,98559.56
2023-04-02T13:55:37.651Z,98556.94
2023-04-02T13:56:39.306Z,98565.47
2023-04-02T13:57:41.008Z,98564.72
2023-04-02T13:58:42.428Z,98563.50
2023-04-02T13:59:43.877Z,98564.97
2023-04-02T14:00:46.512Z,98564.09
2023-04-02T14:01:51.252Z,98571.88
2023-04-02T14:03:04.758Z,98579.09
2023-04-02T14:04:07.466Z,98576.59
2023-04-02T14:05:32.005Z,98580.41
2023-04-02T14:07:23.720Z,98584.38
2023-04-02T14:08:48.064Z,98592.84
2023-04-02T14:10:14.264Z,98595.56
2023-04-02T14:11:27.872Z,98600.06
2023-04-02T14:12:41.475Z,98594.81
2023-04-02T14:14:08.800Z,98596.97
2023-04-02T14:15:36.578Z,98602.44
2023-04-02T14:16:46.480Z,98599.50
2023-04-02T14:18:15.872Z,98605.50
2023-04-02T14:19:45.242Z,98605.94
2023-04-02T14:20:58.735Z,98611.41
2023-04-02T14:22:06.145Z,98614.50
2023-04-02T14:23:17.629Z,98616.66
2023-04-02T14:24:40.632Z,98612.72
2023-04-02T14:26:01.104Z,98617.97
2023-04-02T14:27:03.602Z,98622.91
2023-04-02T14:28:26.956Z,98625.63
2023-04-02T14:29:51.170Z,98618.66
2023-04-02T14:31:18.965Z,98617.53
2023-04-02T14:32:27.611Z,98626.66
2023-04-02T14:33:41.291Z,98625.53
2023-04-02T14:35:16.680Z,98622.69
2023-04-02T14:36:23.308Z,98630.59
2023-04-02T14:37:42.073Z,98632.44
2023-04-02T14:38:57.686Z,98637.69
2023-04-02T14:40:14.477Z,98638.47
2023-04-02T14:41:38.213Z,98636.16
2023-04-02T14:43:01.962Z,98639.34
2023-04-02T14:44:06.014Z,98640.66
2023-04-02T14:45:10.460Z,98633.84
2023-04-02T14:46:12.265Z,98638.34
2023-04-02T14:47:31.176Z,98634.19
2023-04-02T14:48:54.367Z,98635.41
2023-04-02T14:50:02.911Z,98639.91
2023-04-02T14:51:30.862Z,98644.59
2023-04-02T14:52:35.387Z,98648.75
2023-04-02T14:53:58.210Z,98638.88
2023-04-02T14:55:04.225Z,98656.19
2023-04-02T14:56:08.462Z,98648.63
2023-04-02T14:57:21.904Z,98651.69
2023-04-02T14:58:29.226Z,98649.72
2023-04-02T14:59:50.294Z,98652.88
2023-04-02T15:01:15.316Z,98653.09
2023-04-02T15:02:22.605Z,98655.50
2023-04-02T15:03:29.562Z,98651.44
2023-04-02T15:04:38.132Z,98654.06
2023-04-02T15:05:44.536Z,98652.97
2023-04-02T15:06:51.428Z,98649.69
2023-04-02T15:08:07.069Z,98657.38
2023-04-02T15:09:16.548Z,98659.22
2023-04-02T15:10:29.147Z,98665.38
2023-04-02T15:12:07.383Z,98663.16
2023-04-02T15:13:19.878Z,98667.44
2023-04-02T15:14:28.025Z,98669.72
2023-04-02T15:15:47.505Z,98678.63
2023-04-02T15:16:49.215Z,98670.53
2023-04-02T15:17:51.313Z,98667.78
2023-04-02T15:18:56.566Z,98668.75